createdAt,value
2023-03-06T00:07:08.967Z,93.17
2023-03-06T00:17:14.812Z,93.27
2023-03-06T00:27:20.430Z,92.94
2023-03-06T00:37:27.227Z,93.03
2023-03-06T00:47:32.838Z,93.30
2023-03-06T00:57:38.855Z,93.31
2023-03-06T01:07:44.520Z,93.53
2023-03-06T01:17:53.111Z,93.80
2023-03-06T01:27:58.850Z,93.73
2023-03-06T01:38:04.657Z,93.90
2023-03-06T01:48:10.416Z,93.53
2023-03-06T01:58:19.553Z,93.22
2023-03-06T02:08:26.226Z,93.34
2023-03-06T02:18:32.355Z,93.04
2023-03-06T02:28:39.912Z,92.94
2023-03-06T02:38:49.990Z,93.06
2023-03-06T02:48:56.011Z,93.06
2023-03-06T02:59:01.722Z,93.19
2023-03-06T03:09:07.486Z,92.52
2023-03-06T03:19:13.514Z,92.37
2023-03-06T03:29:19.660Z,92.25
2023-03-06T03:39:25.525Z,92.25
2023-03-06T03:49:31.631Z,92.69
2023-03-06T03:59:37.289Z,92.74
2023-03-06T04:09:43.088Z,93.11
2023-03-06T04:19:49.131Z,93.36
2023-03-06T04:29:56.485Z,93.71
2023-03-06T04:40:02.141Z,94.22
2023-03-06T04:50:11.105Z,94.91
2023-03-06T05:00:19.968Z,96.40
2023-03-06T05:10:25.829Z,96.93
2023-03-06T05:20:32.260Z,96.83
2023-03-06T05:30:38.367Z,97.62
2023-03-06T05:40:45.993Z,98.26
2023-03-06T05:50:57.840Z,98.77
2023-03-06T06:01:09.400Z,99.27
2023-03-06T06:11:15.971Z,99.44
2023-03-06T06:21:22.046Z,99.73
2023-03-06T06:31:27.679Z,99.84
2023-03-06T06:41:53.103Z,99.94
2023-03-06T06:51:59.126Z,99.90
2023-03-06T07:02:05.868Z,99.76
2023-03-06T07:12:11.757Z,99.57
2023-03-06T07:22:17.437Z,98.78
2023-03-06T07:32:23.187Z,98.46
2023-03-06T07:42:29.299Z,97.93
2023-03-06T07:52:34.995Z,97.27
2023-03-06T08:02:42.162Z,96.73
2023-03-06T08:12:48.160Z,96.59
2023-03-06T08:22:53.879Z,96.27
2023-03-06T08:32:59.847Z,95.84
2023-03-06T08:43:06.404Z,95.66
2023-03-06T08:53:12.064Z,95.80
2023-03-06T09:03:17.653Z,95.61
2023-03-06T09:13:23.276Z,95.15
2023-03-06T09:23:29.012Z,95.62
2023-03-06T09:33:34.710Z,95.55
2023-03-06T09:43:42.664Z,95.73
2023-03-06T09:54:02.319Z,95.95
2023-03-06T10:04:20.565Z,96.28
2023-03-06T10:14:36.507Z,96.27
2023-03-06T10:24:52.217Z,96.15
2023-03-06T10:35:01.277Z,95.34
2023-03-06T10:45:15.327Z,95.60
2023-03-06T10:55:31.626Z,95.52
2023-03-06T11:05:38.010Z,94.74
2023-03-06T11:15:59.202Z,94.14
2023-03-06T11:26:23.820Z,93.98
2023-03-06T11:36:37.900Z,93.63
2023-03-06T11:46:50.595Z,93.08
2023-03-06T11:57:00.633Z,93.54
2023-03-06T12:07:22.447Z,93.20
2023-03-06T12:17:37.547Z,92.89
2023-03-06T12:27:51.002Z,91.94
2023-03-06T12:38:08.490Z,91.09
2023-03-06T12:48:20.194Z,90.80
2023-03-06T12:58:47.995Z,90.23
2023-03-06T13:09:21.005Z,89.75
2023-03-06T13:19:27.951Z,89.63
2023-03-06T13:30:14.828Z,89.28
2023-03-06T13:40:35.498Z,88.95
2023-03-06T13:50:43.519Z,88.87
2023-03-06T14:01:19.162Z,89.35
2023-03-06T14:11:25.820Z,89.21
2023-03-06T14:21:38.001Z,89.54
2023-03-06T14:31:45.305Z,89.56
2023-03-06T14:41:51.297Z,89.52
2023-03-06T14:52:00.558Z,89.29
2023-03-06T15:02:10.498Z,88.95
2023-03-06T15:12:38.708Z,88.78
2023-03-06T15:22:44.992Z,88.81
2023-03-06T15:32:50.742Z,89.36
2023-03-06T15:42:56.817Z,90.48
2023-03-06T15:53:02.706Z,91.31
2023-03-06T16:03:10.759Z,91.71
2023-03-06T16:13:20.379Z,92.60
2023-03-06T16:23:26.263Z,93.03
2023-03-06T16:33:32.120Z,93.51
2023-03-06T16:43:37.858Z,93.75
2023-03-06T16:53:43.917Z,93.87
2023-03-06T17:03:49.921Z,94.28
2023-03-06T17:13:55.797Z,94.68
2023-03-06T17:24:03.731Z,94.83
2023-03-06T17:34:09.567Z,95.35
2023-03-06T17:44:16.479Z,95.72
2023-03-06T17:54:22.380Z,96.18
2023-03-06T18:04:28.699Z,96.52
2023-03-06T18:14:34.627Z,96.63
2023-03-06T18:24:40.265Z,96.70
2023-03-06T18:34:46.286Z,97.08
2023-03-06T18:44:51.921Z,97.36
2023-03-06T18:54:57.576Z,97.30
2023-03-06T19:05:03.351Z,97.48
2023-03-06T19:15:11.315Z,97.48
2023-03-06T19:25:17.299Z,97.49
2023-03-06T19:35:23.507Z,97.78
2023-03-06T19:45:29.182Z,98.13
2023-03-06T19:55:34.853Z,98.15
2023-03-06T20:05:48.322Z,98.49
2023-03-06T20:15:54.171Z,98.36
2023-03-06T20:26:04.118Z,98.56
2023-03-06T20:36:15.272Z,97.96
2023-03-06T20:46:22.760Z,97.88
2023-03-06T20:56:30.297Z,97.64
2023-03-06T21:06:36.593Z,97.04
2023-03-06T21:16:42.679Z,96.93
2023-03-06T21:26:48.581Z,97.09
2023-03-06T21:36:54.217Z,97.28
2023-03-06T21:46:59.927Z,97.06
2023-03-06T21:57:05.901Z,96.65
2023-03-06T22:07:11.624Z,96.27
2023-03-06T22:17:17.529Z,95.54
2023-03-06T22:27:23.393Z,95.34
2023-03-06T22:37:29.081Z,95.28
2023-03-06T22:47:36.515Z,95.24
2023-03-06T22:57:44.502Z,95.11
2023-03-06T23:07:50.466Z,94.85
2023-03-06T23:17:56.226Z,94.88
2023-03-06T23:28:02.074Z,94.91
2023-03-06T23:38:07.758Z,94.83
2023-03-06T23:48:17.829Z,94.37
2023-03-06T23:58:23.785Z,94.06
